Ely Airport Yelland Field
KELY : now visible

Airfield :











YOU CAN JOIN US ON...

 
LOGIN :

Register | Disclaimer

   EN    FR    IT 

 









Legend :    VFR   Marginal VFR   IFR   Intensive IFR   Very Intensive IFR
Visi :
Ceiling :
>= 8 km
>= 3000ft
5 to 8 km
1000 to 3000 ft
1500m to 5 km
500 to 1000 ft
800 to 1500m
200 to 500 ft
< 800m
< 200 ft
Symbols :   Thunderstorms  Fog  Heavy snow  Heavy precipitations  Wind > 20 kt






- Airport Elevation : 6259 ft


KELY - Ely Yelland Field

CURRENT METAR :
  • 291416Z AUTO 36007KT 10SM FEW022 OVC029 M03/M06 A3019 RMK AO2 T10331056

EXPIRED METARs :
  • 291353Z AUTO 01010KT 10SM FEW022 OVC031 M03/M05 A3018 RMK AO2 SLP232 T10281050
  • 291338Z AUTO 02004KT 10SM OVC031 M03/M05 A3017 RMK AO2 T10281050
  • 291253Z AUTO 36009KT 10SM BKN027 BKN035 OVC049 M02/M04 A3016 RMK AO2 SLP218 T10221039
  • 291153Z AUTO 01007KT 10SM FEW005 BKN030 OVC048 M02/M03 A3014 RMK AO2 SLP195 60000 T10221033 11006 21067 53003

TAF KELY
Valid from the 29 at 12:00 until the 30 at 12:00 UTC


291212Z 2912/3012 36009KT P6SM VCSH SCT030 OVC040
TEMPO 2912/2914 FEW005 BKN024
FM291900 35011G19KT P6SM SCT050 BKN200
FM300600 17008KT P6SM FEW120 BKN250



MET'MAP, your aeronautical weather chart ! - Copyright ORBIFLY December 2007 - Disclaimer

ORBIFLY MET'MAP TEAM :

Programming & Development : Alexandra Zaïnal
Concept & original design : Baudouin d'Aumeries
Assistance for programming : Marc-Olivier Méhu
Technical & hardware support : Manuel Goepfert

Contact : metmap@orbifly.com




SOURCES & CREDITS :

   NOAA       Earth
Advisory